sensor_id;sensor_type;location;lat;lon;timestamp;pressure;altitude;pressure_sealevel;temperature;humidity
35892;BME280;21993;42.672;23.296;2023-06-10T00:01:00;94331.25;;;21.37;69.51
35892;BME280;21993;42.672;23.296;2023-06-10T00:03:26;94340.47;;;21.34;68.83
35892;BME280;21993;42.672;23.296;2023-06-10T00:05:52;94345.41;;;21.30;68.90
35892;BME280;21993;42.672;23.296;2023-06-10T00:08:17;94343.19;;;21.27;69.07
35892;BME280;21993;42.672;23.296;2023-06-10T00:10:44;94337.41;;;21.30;68.63
35892;BME280;21993;42.672;23.296;2023-06-10T00:13:10;94336.38;;;21.31;68.29
35892;BME280;21993;42.672;23.296;2023-06-10T00:15:37;94342.34;;;21.27;68.24
35892;BME280;21993;42.672;23.296;2023-06-10T00:18:03;94339.84;;;21.25;68.15
35892;BME280;21993;42.672;23.296;2023-06-10T00:20:29;94333.09;;;21.23;67.92
35892;BME280;21993;42.672;23.296;2023-06-10T00:22:56;94344.59;;;21.23;67.83
35892;BME280;21993;42.672;23.296;2023-06-10T00:25:22;94342.94;;;21.22;68.14
35892;BME280;21993;42.672;23.296;2023-06-10T00:27:47;94338.66;;;21.21;67.87
35892;BME280;21993;42.672;23.296;2023-06-10T00:30:13;94335.78;;;21.16;68.07
35892;BME280;21993;42.672;23.296;2023-06-10T00:32:39;94335.16;;;21.14;67.57
35892;BME280;21993;42.672;23.296;2023-06-10T00:35:05;94351.78;;;21.09;68.25
35892;BME280;21993;42.672;23.296;2023-06-10T00:37:31;94341.13;;;21.09;68.51
35892;BME280;21993;42.672;23.296;2023-06-10T00:39:57;94345.47;;;21.04;68.10
35892;BME280;21993;42.672;23.296;2023-06-10T00:42:22;94345.03;;;21.14;67.86
35892;BME280;21993;42.672;23.296;2023-06-10T00:44:50;94340.94;;;21.11;67.77
35892;BME280;21993;42.672;23.296;2023-06-10T00:47:16;94339.91;;;21.05;68.35
35892;BME280;21993;42.672;23.296;2023-06-10T00:49:41;94344.44;;;20.98;68.85
35892;BME280;21993;42.672;23.296;2023-06-10T00:52:08;94339.31;;;20.97;68.84
35892;BME280;21993;42.672;23.296;2023-06-10T00:54:33;94339.94;;;20.92;68.92
35892;BME280;21993;42.672;23.296;2023-06-10T00:57:00;94336.22;;;20.93;68.89
35892;BME280;21993;42.672;23.296;2023-06-10T00:59:28;94338.91;;;20.93;69.32
35892;BME280;21993;42.672;23.296;2023-06-10T01:01:54;94336.88;;;20.95;68.55
35892;BME280;21993;42.672;23.296;2023-06-10T01:04:20;94347.94;;;20.92;68.61
35892;BME280;21993;42.672;23.296;2023-06-10T01:09:23;94350.81;;;20.91;68.58
35892;BME280;21993;42.672;23.296;2023-06-10T01:12:01;94345.69;;;20.89;68.96
35892;BME280;21993;42.672;23.296;2023-06-10T01:14:28;94362.94;;;20.87;69.35
35892;BME280;21993;42.672;23.296;2023-06-10T01:16:54;94357.19;;;20.90;69.01
35892;BME280;21993;42.672;23.296;2023-06-10T01:19:20;94358.22;;;20.89;69.11
35892;BME280;21993;42.672;23.296;2023-06-10T01:21:45;94353.09;;;20.87;69.29
35892;BME280;21993;42.672;23.296;2023-06-10T01:24:14;94355.13;;;20.92;69.65
35892;BME280;21993;42.672;23.296;2023-06-10T01:26:44;94345.31;;;20.86;69.66
35892;BME280;21993;42.672;23.296;2023-06-10T01:29:20;94351.63;;;20.85;69.57
35892;BME280;21993;42.672;23.296;2023-06-10T01:31:56;94354.72;;;20.82;70.04
35892;BME280;21993;42.672;23.296;2023-06-10T01:34:25;94342.63;;;20.86;70.44
35892;BME280;21993;42.672;23.296;2023-06-10T01:36:52;94349.59;;;20.87;70.17
35892;BME280;21993;42.672;23.296;2023-06-10T01:39:22;94351.63;;;20.85;70.27
35892;BME280;21993;42.672;23.296;2023-06-10T01:41:49;94347.75;;;20.80;70.46
35892;BME280;21993;42.672;23.296;2023-06-10T01:44:21;94351.47;;;20.79;69.99
35892;BME280;21993;42.672;23.296;2023-06-10T01:46:47;94337.69;;;20.76;70.85
35892;BME280;21993;42.672;23.296;2023-06-10T01:49:12;94345.69;;;20.83;70.28
35892;BME280;21993;42.672;23.296;2023-06-10T01:51:38;94347.75;;;20.80;70.59
35892;BME280;21993;42.672;23.296;2023-06-10T01:54:04;94348.78;;;20.86;69.93
35892;BME280;21993;42.672;23.296;2023-06-10T01:56:29;94339.16;;;20.78;70.44
35892;BME280;21993;42.672;23.296;2023-06-10T01:58:55;94330.72;;;20.82;70.31
35892;BME280;21993;42.672;23.296;2023-06-10T02:01:27;94327.84;;;20.83;70.04
35892;BME280;21993;42.672;23.296;2023-06-10T02:03:52;94320.88;;;20.82;70.05
35892;BME280;21993;42.672;23.296;2023-06-10T02:06:18;94324.78;;;20.79;70.14
35892;BME280;21993;42.672;23.296;2023-06-10T02:08:43;94327.44;;;20.66;70.32
35892;BME280;21993;42.672;23.296;2023-06-10T02:11:09;94328.47;;;20.59;70.50
35892;BME280;21993;42.672;23.296;2023-06-10T02:13:34;94324.19;;;20.64;70.26
35892;BME280;21993;42.672;23.296;2023-06-10T02:16:00;94322.72;;;20.75;69.82
35892;BME280;21993;42.672;23.296;2023-06-10T02:18:26;94323.97;;;20.66;70.10
35892;BME280;21993;42.672;23.296;2023-06-10T02:20:53;94309.63;;;20.60;70.45
35892;BME280;21993;42.672;23.296;2023-06-10T02:23:18;94307.97;;;20.66;70.57
35892;BME280;21993;42.672;23.296;2023-06-10T02:25:44;94317.00;;;20.65;70.23
35892;BME280;21993;42.672;23.296;2023-06-10T02:28:09;94314.75;;;20.68;70.25
35892;BME280;21993;42.672;23.296;2023-06-10T02:30:35;94309.59;;;20.67;70.31
35892;BME280;21993;42.672;23.296;2023-06-10T02:33:00;94311.03;;;20.69;70.23
35892;BME280;21993;42.672;23.296;2023-06-10T02:35:26;94299.56;;;20.69;70.20
35892;BME280;21993;42.672;23.296;2023-06-10T02:37:52;94303.66;;;20.71;70.84
35892;BME280;21993;42.672;23.296;2023-06-10T02:40:17;94302.19;;;20.75;70.42
35892;BME280;21993;42.672;23.296;2023-06-10T02:42:43;94299.94;;;20.79;70.37
35892;BME280;21993;42.672;23.296;2023-06-10T02:45:08;94304.47;;;20.78;70.77
35892;BME280;21993;42.672;23.296;2023-06-10T02:47:34;94299.75;;;20.74;70.69
35892;BME280;21993;42.672;23.296;2023-06-10T02:49:59;94293.56;;;20.80;70.74
35892;BME280;21993;42.672;23.296;2023-06-10T02:52:25;94287.81;;;20.83;70.25
35892;BME280;21993;42.672;23.296;2023-06-10T02:54:50;94284.53;;;20.81;70.91
35892;BME280;21993;42.672;23.296;2023-06-10T02:57:16;94298.69;;;20.82;71.03
35892;BME280;21993;42.672;23.296;2023-06-10T02:59:41;94298.09;;;20.79;71.37
35892;BME280;21993;42.672;23.296;2023-06-10T03:02:06;94298.69;;;20.82;71.63
35892;BME280;21993;42.672;23.296;2023-06-10T03:04:33;94293.56;;;20.80;71.90
35892;BME280;21993;42.672;23.296;2023-06-10T03:06:58;94302.81;;;20.77;72.05
35892;BME280;21993;42.672;23.296;2023-06-10T03:09:28;94296.03;;;20.82;71.76
35892;BME280;21993;42.672;23.296;2023-06-10T03:11:54;94306.09;;;20.79;72.37
35892;BME280;21993;42.672;23.296;2023-06-10T03:14:19;94304.03;;;20.75;72.39
35892;BME280;21993;42.672;23.296;2023-06-10T03:16:45;94303.00;;;20.76;72.41
35892;BME280;21993;42.672;23.296;2023-06-10T03:19:10;94307.13;;;20.78;73.42
35892;BME280;21993;42.672;23.296;2023-06-10T03:21:36;94302.41;;;20.80;74.44
35892;BME280;21993;42.672;23.296;2023-06-10T03:24:03;94310.84;;;20.77;74.55
35892;BME280;21993;42.672;23.296;2023-06-10T03:26:28;94314.91;;;20.80;74.89
35892;BME280;21993;42.672;23.296;2023-06-10T03:28:53;94323.75;;;20.80;74.27
35892;BME280;21993;42.672;23.296;2023-06-10T03:31:19;94332.78;;;20.73;74.42
35892;BME280;21993;42.672;23.296;2023-06-10T03:33:44;94328.06;;;20.75;73.48
35892;BME280;21993;42.672;23.296;2023-06-10T03:36:10;94327.22;;;20.74;73.41
35892;BME280;21993;42.672;23.296;2023-06-10T03:38:35;94329.09;;;20.74;73.20
35892;BME280;21993;42.672;23.296;2023-06-10T03:41:01;94333.59;;;20.67;73.90
35892;BME280;21993;42.672;23.296;2023-06-10T03:43:27;94334.63;;;20.66;74.21
35892;BME280;21993;42.672;23.296;2023-06-10T03:45:53;94330.75;;;20.68;74.11
35892;BME280;21993;42.672;23.296;2023-06-10T03:48:18;94327.22;;;20.68;74.46
35892;BME280;21993;42.672;23.296;2023-06-10T03:50:44;94331.97;;;20.72;74.07
35892;BME280;21993;42.672;23.296;2023-06-10T03:53:09;94327.88;;;20.70;74.66
35892;BME280;21993;42.672;23.296;2023-06-10T03:55:35;94325.59;;;20.67;74.97
35892;BME280;21993;42.672;23.296;2023-06-10T03:58:01;94331.97;;;20.66;74.89
35892;BME280;21993;42.672;23.296;2023-06-10T04:00:27;94326.41;;;20.67;74.42
35892;BME280;21993;42.672;23.296;2023-06-10T04:02:52;94326.41;;;20.67;74.70
35892;BME280;21993;42.672;23.296;2023-06-10T04:05:19;94325.00;;;20.65;74.64
35892;BME280;21993;42.672;23.296;2023-06-10T04:07:47;94331.97;;;20.66;74.64
35892;BME280;21993;42.672;23.296;2023-06-10T04:10:13;94328.69;;;20.64;74.42
35892;BME280;21993;42.672;23.296;2023-06-10T04:12:39;94324.38;;;20.63;74.01
35892;BME280;21993;42.672;23.296;2023-06-10T04:15:05;94328.09;;;20.62;74.44
35892;BME280;21993;42.672;23.296;2023-06-10T04:17:30;94328.69;;;20.64;73.67
35892;BME280;21993;42.672;23.296;2023-06-10T04:19:56;94333.63;;;20.60;73.90
35892;BME280;21993;42.672;23.296;2023-06-10T04:22:23;94337.50;;;20.58;74.55
35892;BME280;21993;42.672;23.296;2023-06-10T04:24:48;94327.06;;;20.56;74.70
35892;BME280;21993;42.672;23.296;2023-06-10T04:27:14;94330.53;;;20.57;74.87
35892;BME280;21993;42.672;23.296;2023-06-10T04:29:39;94340.38;;;20.63;75.07
35892;BME280;21993;42.672;23.296;2023-06-10T04:32:06;94334.03;;;20.57;75.93
35892;BME280;21993;42.672;23.296;2023-06-10T04:34:33;94333.22;;;20.57;75.46
35892;BME280;21993;42.672;23.296;2023-06-10T04:36:59;94336.91;;;20.56;75.81
35892;BME280;21993;42.672;23.296;2023-06-10T04:39:24;94334.22;;;20.49;75.84
35892;BME280;21993;42.672;23.296;2023-06-10T04:41:49;94341.19;;;20.57;76.27
35892;BME280;21993;42.672;23.296;2023-06-10T04:44:15;94336.28;;;20.54;76.40
35892;BME280;21993;42.672;23.296;2023-06-10T04:46:40;94332.59;;;20.55;76.31
35892;BME280;21993;42.672;23.296;2023-06-10T04:49:06;94332.00;;;20.52;76.35
35892;BME280;21993;42.672;23.296;2023-06-10T04:51:31;94333.22;;;20.57;76.65
35892;BME280;21993;42.672;23.296;2023-06-10T04:53:57;94339.78;;;20.61;76.24
35892;BME280;21993;42.672;23.296;2023-06-10T04:56:23;94338.75;;;20.62;75.75
35892;BME280;21993;42.672;23.296;2023-06-10T04:58:49;94331.78;;;20.61;75.63
35892;BME280;21993;42.672;23.296;2023-06-10T05:01:14;94335.88;;;20.70;74.70
35892;BME280;21993;42.672;23.296;2023-06-10T05:03:40;94331.75;;;20.67;75.02
35892;BME280;21993;42.672;23.296;2023-06-10T05:06:05;94323.56;;;20.62;75.98
35892;BME280;21993;42.672;23.296;2023-06-10T05:08:31;94337.09;;;20.74;75.83
35892;BME280;21993;42.672;23.296;2023-06-10T05:10:56;94327.44;;;20.66;75.49
35892;BME280;21993;42.672;23.296;2023-06-10T05:13:21;94328.09;;;20.62;75.53
35892;BME280;21993;42.672;23.296;2023-06-10T05:15:47;94336.47;;;20.59;75.37
35892;BME280;21993;42.672;23.296;2023-06-10T05:18:13;94333.81;;;20.59;75.34
35892;BME280;21993;42.672;23.296;2023-06-10T05:20:38;94333.00;;;20.65;75.31
35892;BME280;21993;42.672;23.296;2023-06-10T05:23:04;94329.28;;;20.66;75.12
35892;BME280;21993;42.672;23.296;2023-06-10T05:25:30;94336.91;;;20.62;75.37
35892;BME280;21993;42.672;23.296;2023-06-10T05:27:56;94333.22;;;20.57;75.75
35892;BME280;21993;42.672;23.296;2023-06-10T05:30:22;94331.78;;;20.61;76.03
35892;BME280;21993;42.672;23.296;2023-06-10T05:32:49;94331.56;;;20.56;75.76
35892;BME280;21993;42.672;23.296;2023-06-10T05:35:16;94331.34;;;20.50;76.25
35892;BME280;21993;42.672;23.296;2023-06-10T05:37:42;94338.53;;;20.50;76.66
35892;BME280;21993;42.672;23.296;2023-06-10T05:40:08;94338.34;;;20.51;76.51
35892;BME280;21993;42.672;23.296;2023-06-10T05:42:34;94334.22;;;20.56;76.07
35892;BME280;21993;42.672;23.296;2023-06-10T05:44:59;94344.28;;;20.54;76.58
35892;BME280;21993;42.672;23.296;2023-06-10T05:47:25;94335.88;;;20.57;76.59
35892;BME280;21993;42.672;23.296;2023-06-10T05:49:50;94349.00;;;20.58;76.52
35892;BME280;21993;42.672;23.296;2023-06-10T05:52:17;94344.09;;;20.68;76.24
35892;BME280;21993;42.672;23.296;2023-06-10T05:54:43;94338.13;;;20.66;76.14
35892;BME280;21993;42.672;23.296;2023-06-10T05:57:08;94349.00;;;20.65;75.76
35892;BME280;21993;42.672;23.296;2023-06-10T05:59:34;94342.63;;;20.79;75.46
35892;BME280;21993;42.672;23.296;2023-06-10T06:01:59;94350.84;;;20.71;75.29
35892;BME280;21993;42.672;23.296;2023-06-10T06:04:24;94347.97;;;20.72;75.17
35892;BME280;21993;42.672;23.296;2023-06-10T06:06:50;94345.91;;;20.68;75.10
35892;BME280;21993;42.672;23.296;2023-06-10T06:09:15;94340.78;;;20.73;74.86
35892;BME280;21993;42.672;23.296;2023-06-10T06:11:41;94345.69;;;20.76;73.63
35892;BME280;21993;42.672;23.296;2023-06-10T06:14:06;94341.00;;;20.78;72.44
35892;BME280;21993;42.672;23.296;2023-06-10T06:16:32;94348.78;;;20.73;73.31
35892;BME280;21993;42.672;23.296;2023-06-10T06:18:57;94350.63;;;20.66;72.88
35892;BME280;21993;42.672;23.296;2023-06-10T06:21:23;94347.38;;;20.77;72.46
35892;BME280;21993;42.672;23.296;2023-06-10T06:23:48;94344.88;;;20.89;71.75
35892;BME280;21993;42.672;23.296;2023-06-10T06:26:14;94351.63;;;20.91;71.57
35892;BME280;21993;42.672;23.296;2023-06-10T06:28:39;94344.66;;;20.90;72.01
35892;BME280;21993;42.672;23.296;2023-06-10T06:31:05;94348.16;;;20.91;72.03
35892;BME280;21993;42.672;23.296;2023-06-10T06:33:30;94344.88;;;20.89;72.26
35892;BME280;21993;42.672;23.296;2023-06-10T06:35:56;94351.03;;;21.02;71.53
35892;BME280;21993;42.672;23.296;2023-06-10T06:38:21;94348.94;;;21.04;71.43
35892;BME280;21993;42.672;23.296;2023-06-10T06:40:47;94349.34;;;21.08;71.05
35892;BME280;21993;42.672;23.296;2023-06-10T06:43:12;94358.16;;;21.15;71.11
35892;BME280;21993;42.672;23.296;2023-06-10T06:45:37;94350.59;;;21.05;71.70
35892;BME280;21993;42.672;23.296;2023-06-10T06:48:04;94348.31;;;21.09;71.55
35892;BME280;21993;42.672;23.296;2023-06-10T06:50:30;94335.16;;;21.14;70.78
35892;BME280;21993;42.672;23.296;2023-06-10T06:52:55;94333.53;;;21.20;71.38
35892;BME280;21993;42.672;23.296;2023-06-10T06:55:21;94333.53;;;21.20;71.00
35892;BME280;21993;42.672;23.296;2023-06-10T06:57:46;94338.03;;;21.19;71.01
35892;BME280;21993;42.672;23.296;2023-06-10T07:00:12;94340.31;;;21.09;70.73
35892;BME280;21993;42.672;23.296;2023-06-10T07:02:37;94344.59;;;21.10;70.73
35892;BME280;21993;42.672;23.296;2023-06-10T07:05:03;94338.22;;;21.31;68.84
35892;BME280;21993;42.672;23.296;2023-06-10T07:07:29;94335.78;;;21.29;69.19
35892;BME280;21993;42.672;23.296;2023-06-10T07:09:54;94340.28;;;21.22;69.97
35892;BME280;21993;42.672;23.296;2023-06-10T07:12:19;94332.28;;;21.22;70.15
35892;BME280;21993;42.672;23.296;2023-06-10T07:14:49;94330.44;;;21.16;71.04
35892;BME280;21993;42.672;23.296;2023-06-10T07:17:14;94322.00;;;21.32;69.19
35892;BME280;21993;42.672;23.296;2023-06-10T07:19:39;94325.09;;;21.29;69.36
35892;BME280;21993;42.672;23.296;2023-06-10T07:22:05;94312.91;;;21.47;68.42
35892;BME280;21993;42.672;23.296;2023-06-10T07:24:30;94315.06;;;21.70;66.66
35892;BME280;21993;42.672;23.296;2023-06-10T07:26:56;94322.53;;;21.54;67.66
35892;BME280;21993;42.672;23.296;2023-06-10T07:29:21;94316.13;;;21.62;67.64
35892;BME280;21993;42.672;23.296;2023-06-10T07:31:46;94311.59;;;21.62;68.38
35892;BME280;21993;42.672;23.296;2023-06-10T07:34:12;94317.00;;;21.49;68.59
35892;BME280;21993;42.672;23.296;2023-06-10T07:36:37;94317.78;;;21.56;67.81
35892;BME280;21993;42.672;23.296;2023-06-10T07:39:03;94324.56;;;21.52;67.59
35892;BME280;21993;42.672;23.296;2023-06-10T07:41:29;94314.31;;;21.49;68.01
35892;BME280;21993;42.672;23.296;2023-06-10T07:43:55;94319.66;;;21.56;67.65
35892;BME280;21993;42.672;23.296;2023-06-10T07:46:22;94317.31;;;21.73;66.54
35892;BME280;21993;42.672;23.296;2023-06-10T07:48:48;94319.13;;;21.79;66.06
35892;BME280;21993;42.672;23.296;2023-06-10T07:51:15;94315.78;;;21.83;64.58
35892;BME280;21993;42.672;23.296;2023-06-10T07:53:41;94317.06;;;21.74;65.52
35892;BME280;21993;42.672;23.296;2023-06-10T07:56:06;94314.59;;;21.79;65.00
35892;BME280;21993;42.672;23.296;2023-06-10T07:58:32;94320.19;;;21.71;64.66
35892;BME280;21993;42.672;23.296;2023-06-10T08:00:57;94319.75;;;21.74;64.28
35892;BME280;21993;42.672;23.296;2023-06-10T08:03:22;94321.13;;;21.83;64.33
35892;BME280;21993;42.672;23.296;2023-06-10T08:05:48;94307.81;;;22.15;62.31
35892;BME280;21993;42.672;23.296;2023-06-10T08:08:13;94311.03;;;22.24;62.29
35892;BME280;21993;42.672;23.296;2023-06-10T08:10:39;94305.16;;;22.40;61.26
35892;BME280;21993;42.672;23.296;2023-06-10T08:13:04;94306.47;;;22.31;63.01
35892;BME280;21993;42.672;23.296;2023-06-10T08:15:30;94314.22;;;22.39;61.79
35892;BME280;21993;42.672;23.296;2023-06-10T08:17:55;94298.53;;;22.42;61.23
35892;BME280;21993;42.672;23.296;2023-06-10T08:20:22;94308.47;;;22.60;59.57
35892;BME280;21993;42.672;23.296;2023-06-10T08:22:47;94296.63;;;22.74;58.21
35892;BME280;21993;42.672;23.296;2023-06-10T08:25:12;94291.22;;;22.81;58.90
35892;BME280;21993;42.672;23.296;2023-06-10T08:27:38;94289.56;;;23.23;55.73
35892;BME280;21993;42.672;23.296;2023-06-10T08:30:04;94290.31;;;23.12;57.67
35892;BME280;21993;42.672;23.296;2023-06-10T08:32:29;94283.00;;;23.19;57.95
35892;BME280;21993;42.672;23.296;2023-06-10T08:34:55;94282.59;;;23.52;55.07
35892;BME280;21993;42.672;23.296;2023-06-10T08:37:20;94285.22;;;23.41;55.95
35892;BME280;21993;42.672;23.296;2023-06-10T08:39:46;94280.88;;;23.58;55.29
35892;BME280;21993;42.672;23.296;2023-06-10T08:44:54;94276.09;;;23.78;53.24
35892;BME280;21993;42.672;23.296;2023-06-10T08:47:23;94275.47;;;23.65;54.47
35892;BME280;21993;42.672;23.296;2023-06-10T08:49:48;94276.09;;;23.78;53.54
35892;BME280;21993;42.672;23.296;2023-06-10T08:52:19;94272.00;;;24.06;52.14
35892;BME280;21993;42.672;23.296;2023-06-10T08:54:49;94268.16;;;24.13;50.96
35892;BME280;21993;42.672;23.296;2023-06-10T08:57:18;94264.78;;;24.18;51.50
35892;BME280;21993;42.672;23.296;2023-06-10T08:59:46;94257.69;;;24.24;51.47
35892;BME280;21993;42.672;23.296;2023-06-10T09:02:13;94262.91;;;24.19;50.72
35892;BME280;21993;42.672;23.296;2023-06-10T09:04:39;94257.19;;;24.15;51.75
35892;BME280;21993;42.672;23.296;2023-06-10T09:07:05;94259.88;;;24.15;51.80
35892;BME280;21993;42.672;23.296;2023-06-10T09:09:32;94250.78;;;24.28;52.24
35892;BME280;21993;42.672;23.296;2023-06-10T09:11:59;94252.94;;;24.37;50.89
35892;BME280;21993;42.672;23.296;2023-06-10T09:14:25;94247.94;;;24.41;50.96
35892;BME280;21993;42.672;23.296;2023-06-10T09:16:50;94246.16;;;24.47;50.21
35892;BME280;21993;42.672;23.296;2023-06-10T09:19:16;94255.63;;;24.61;50.01
35892;BME280;21993;42.672;23.296;2023-06-10T09:21:42;94247.34;;;24.51;52.04
35892;BME280;21993;42.672;23.296;2023-06-10T09:24:07;94255.88;;;24.59;52.23
35892;BME280;21993;42.672;23.296;2023-06-10T09:26:33;94246.06;;;24.77;51.67
35892;BME280;21993;42.672;23.296;2023-06-10T09:29:04;94246.75;;;24.84;50.40
35892;BME280;21993;42.672;23.296;2023-06-10T09:31:30;94243.81;;;24.97;49.60
35892;BME280;21993;42.672;23.296;2023-06-10T09:34:05;94242.09;;;25.03;50.32
35892;BME280;21993;42.672;23.296;2023-06-10T09:36:32;94240.22;;;25.03;49.76
35892;BME280;21993;42.672;23.296;2023-06-10T09:38:58;94237.91;;;25.07;49.43
35892;BME280;21993;42.672;23.296;2023-06-10T09:41:35;94237.09;;;25.06;49.65
35892;BME280;21993;42.672;23.296;2023-06-10T09:44:01;94226.56;;;25.05;50.29
35892;BME280;21993;42.672;23.296;2023-06-10T09:46:31;94225.13;;;25.25;49.82
35892;BME280;21993;42.672;23.296;2023-06-10T09:48:58;94226.06;;;25.19;49.87
35892;BME280;21993;42.672;23.296;2023-06-10T09:51:24;94221.16;;;25.16;50.04
35892;BME280;21993;42.672;23.296;2023-06-10T09:53:53;94221.13;;;25.28;48.38
35892;BME280;21993;42.672;23.296;2023-06-10T09:56:19;94216.50;;;25.12;49.53
35892;BME280;21993;42.672;23.296;2023-06-10T09:58:45;94218.94;;;25.13;48.89
35892;BME280;21993;42.672;23.296;2023-06-10T10:01:14;94208.75;;;25.27;48.09
35892;BME280;21993;42.672;23.296;2023-06-10T10:03:47;94216.00;;;25.26;48.88
35892;BME280;21993;42.672;23.296;2023-06-10T10:06:14;94215.22;;;25.14;49.57
35892;BME280;21993;42.672;23.296;2023-06-10T10:08:40;94212.06;;;25.17;49.24
35892;BME280;21993;42.672;23.296;2023-06-10T10:11:06;94207.38;;;25.13;50.76
35892;BME280;21993;42.672;23.296;2023-06-10T10:13:33;94196.19;;;25.44;49.16
35892;BME280;21993;42.672;23.296;2023-06-10T10:16:03;94192.09;;;25.70;45.93
35892;BME280;21993;42.672;23.296;2023-06-10T10:18:29;94190.19;;;25.54;47.88
35892;BME280;21993;42.672;23.296;2023-06-10T10:20:57;94195.81;;;25.52;48.89
35892;BME280;21993;42.672;23.296;2023-06-10T10:23:31;94191.06;;;25.71;48.10
35892;BME280;21993;42.672;23.296;2023-06-10T10:26:00;94187.66;;;25.64;48.91
35892;BME280;21993;42.672;23.296;2023-06-10T10:28:32;94188.63;;;25.87;46.54
35892;BME280;21993;42.672;23.296;2023-06-10T10:31:05;94186.63;;;25.94;46.14
35892;BME280;21993;42.672;23.296;2023-06-10T10:36:04;94186.47;;;26.00;45.63
35892;BME280;21993;42.672;23.296;2023-06-10T10:38:31;94200.31;;;25.92;46.97
35892;BME280;21993;42.672;23.296;2023-06-10T10:40:57;94180.28;;;26.00;45.74
35892;BME280;21993;42.672;23.296;2023-06-10T10:43:25;94175.06;;;26.10;45.27
35892;BME280;21993;42.672;23.296;2023-06-10T10:46:01;94176.34;;;26.24;44.84
35892;BME280;21993;42.672;23.296;2023-06-10T10:48:27;94170.97;;;26.24;44.88
35892;BME280;21993;42.672;23.296;2023-06-10T10:50:58;94167.88;;;26.32;44.50
35892;BME280;21993;42.672;23.296;2023-06-10T10:53:24;94164.84;;;26.29;45.54
35892;BME280;21993;42.672;23.296;2023-06-10T10:56:13;94161.69;;;26.32;45.95
35892;BME280;21993;42.672;23.296;2023-06-10T10:58:40;94157.59;;;26.46;46.24
35892;BME280;21993;42.672;23.296;2023-06-10T11:01:12;94154.59;;;26.64;43.80
35892;BME280;21993;42.672;23.296;2023-06-10T11:03:43;94157.72;;;26.56;44.58
35892;BME280;21993;42.672;23.296;2023-06-10T11:06:14;94157.31;;;26.64;44.61
35892;BME280;21993;42.672;23.296;2023-06-10T11:11:24;94146.75;;;26.80;44.44
35892;BME280;21993;42.672;23.296;2023-06-10T11:14:27;94145.50;;;26.87;42.78
35892;BME280;21993;42.672;23.296;2023-06-10T11:16:58;94146.81;;;26.85;42.65
35892;BME280;21993;42.672;23.296;2023-06-10T11:19:38;94133.53;;;26.78;42.11
35892;BME280;21993;42.672;23.296;2023-06-10T11:22:07;94138.41;;;26.81;42.80
35892;BME280;21993;42.672;23.296;2023-06-10T11:24:33;94138.66;;;27.02;41.18
35892;BME280;21993;42.672;23.296;2023-06-10T11:32:33;94121.47;;;26.64;42.95
35892;BME280;21993;42.672;23.296;2023-06-10T11:35:02;94126.50;;;26.77;42.58
35892;BME280;21993;42.672;23.296;2023-06-10T11:37:28;94120.94;;;26.62;42.52
35892;BME280;21993;42.672;23.296;2023-06-10T11:39:54;94127.84;;;26.75;42.90
35892;BME280;21993;42.672;23.296;2023-06-10T11:42:23;94126.00;;;26.80;43.07
35892;BME280;21993;42.672;23.296;2023-06-10T11:44:51;94116.19;;;26.91;43.18
35892;BME280;21993;42.672;23.296;2023-06-10T11:47:17;94125.94;;;26.97;42.83
35892;BME280;21993;42.672;23.296;2023-06-10T11:49:43;94118.94;;;26.96;43.09
35892;BME280;21993;42.672;23.296;2023-06-10T11:52:08;94119.31;;;26.83;43.57
35892;BME280;21993;42.672;23.296;2023-06-10T11:54:34;94103.09;;;26.78;44.07
35892;BME280;21993;42.672;23.296;2023-06-10T11:57:00;94108.84;;;26.86;43.65
35892;BME280;21993;42.672;23.296;2023-06-10T11:59:29;94110.09;;;27.01;42.34
35892;BME280;21993;42.672;23.296;2023-06-10T12:01:55;94114.34;;;26.97;43.06
35892;BME280;21993;42.672;23.296;2023-06-10T12:04:21;94109.34;;;26.83;43.00
35892;BME280;21993;42.672;23.296;2023-06-10T12:06:52;94106.59;;;26.78;43.81
35892;BME280;21993;42.672;23.296;2023-06-10T12:09:20;94116.03;;;26.81;43.33
35892;BME280;21993;42.672;23.296;2023-06-10T12:11:55;94105.28;;;26.81;43.43
35892;BME280;21993;42.672;23.296;2023-06-10T12:14:52;94107.59;;;26.72;43.61
35892;BME280;21993;42.672;23.296;2023-06-10T12:20:04;94101.50;;;26.82;42.91
35892;BME280;21993;42.672;23.296;2023-06-10T12:22:39;94108.16;;;26.74;42.94
35892;BME280;21993;42.672;23.296;2023-06-10T12:25:06;94107.84;;;26.71;43.70
35892;BME280;21993;42.672;23.296;2023-06-10T12:27:33;94103.81;;;26.73;42.91
35892;BME280;21993;42.672;23.296;2023-06-10T12:30:00;94105.97;;;26.71;43.05
35892;BME280;21993;42.672;23.296;2023-06-10T12:32:40;94097.69;;;26.78;42.85
35892;BME280;21993;42.672;23.296;2023-06-10T12:35:07;94096.00;;;26.72;41.87
35892;BME280;21993;42.672;23.296;2023-06-10T12:37:33;94089.75;;;26.66;42.00
35892;BME280;21993;42.672;23.296;2023-06-10T12:40:03;94092.38;;;26.83;40.17
35892;BME280;21993;42.672;23.296;2023-06-10T12:42:29;94081.97;;;26.70;39.41
35892;BME280;21993;42.672;23.296;2023-06-10T12:44:56;94083.47;;;26.60;40.24
35892;BME280;21993;42.672;23.296;2023-06-10T12:47:32;94072.38;;;26.57;41.14
35892;BME280;21993;42.672;23.296;2023-06-10T12:50:00;94081.53;;;26.56;41.50
35892;BME280;21993;42.672;23.296;2023-06-10T12:52:26;94088.53;;;26.57;39.09
35892;BME280;21993;42.672;23.296;2023-06-10T12:54:53;94087.00;;;26.61;38.03
35892;BME280;21993;42.672;23.296;2023-06-10T12:57:19;94087.41;;;26.53;39.67
35892;BME280;21993;42.672;23.296;2023-06-10T12:59:44;94096.56;;;26.74;39.19
35892;BME280;21993;42.672;23.296;2023-06-10T13:02:15;94092.13;;;26.84;36.95
35892;BME280;21993;42.672;23.296;2023-06-10T13:04:41;94081.97;;;26.70;37.12
35892;BME280;21993;42.672;23.296;2023-06-10T13:07:08;94089.69;;;26.61;38.16